Time;durP1;ratioP1;P1;durP2;ratioP2;P2;SDS_P1;SDS_P2;PMS_P1;PMS_P2;Temp;Humidity;BMP_temperature;BMP_pressure;BME280_temperature;BME280_humidity;BME280_pressure;Samples;Min_cycle;Max_cycle;Signal;HPM_P1;HPM_P2
2023/08/02 00:00:35;;;;;;;7.63;2.60;;;13.00;99.90;;;;;;5010960;28;20986;-57
2023/08/02 00:03:01;;;;;;;3.40;1.93;;;13.00;99.90;;;;;;5021667;28;20505;-57
2023/08/02 00:05:27;;;;;;;6.63;2.73;;;13.00;99.90;;;;;;5017028;28;20525;-58
2023/08/02 00:07:53;;;;;;;4.43;2.40;;;12.90;99.90;;;;;;5011083;28;20199;-59
2023/08/02 00:10:18;;;;;;;4.73;2.23;;;12.90;99.90;;;;;;5021850;28;20427;-57
2023/08/02 00:12:44;;;;;;;6.33;2.53;;;12.90;99.90;;;;;;5019732;28;20849;-59
2023/08/02 00:15:10;;;;;;;3.10;2.53;;;13.00;99.90;;;;;;5017472;28;20226;-59
2023/08/02 00:17:35;;;;;;;4.63;2.30;;;13.00;99.90;;;;;;5018740;28;20879;-58
2023/08/02 00:20:01;;;;;;;5.93;2.50;;;13.10;99.90;;;;;;5013894;28;20186;-57
2023/08/02 00:22:27;;;;;;;3.30;2.23;;;13.10;99.90;;;;;;5015806;28;20200;-57
2023/08/02 00:24:52;;;;;;;4.10;2.50;;;13.10;99.90;;;;;;5018012;28;20184;-57
2023/08/02 00:27:18;;;;;;;2.50;2.20;;;13.20;99.90;;;;;;5021661;28;20203;-59
2023/08/02 00:29:43;;;;;;;2.40;2.17;;;13.20;99.90;;;;;;5014074;28;20226;-58
2023/08/02 00:32:09;;;;;;;4.00;2.57;;;13.20;99.90;;;;;;5014751;28;20755;-57
2023/08/02 00:34:35;;;;;;;4.40;2.30;;;13.20;99.90;;;;;;5012654;28;20212;-59
2023/08/02 00:37:01;;;;;;;5.17;2.50;;;13.20;99.90;;;;;;5010086;28;20782;-59
2023/08/02 00:39:27;;;;;;;6.23;2.63;;;13.20;99.90;;;;;;5009910;28;20259;-58
2023/08/02 00:41:53;;;;;;;6.43;2.40;;;13.10;99.90;;;;;;5021384;28;20473;-59
2023/08/02 00:44:18;;;;;;;4.07;2.13;;;13.00;99.90;;;;;;5017688;28;20241;-58
2023/08/02 00:46:44;;;;;;;8.97;2.80;;;12.90;99.90;;;;;;5018876;28;20307;-58
2023/08/02 00:49:10;;;;;;;5.97;2.83;;;12.80;99.90;;;;;;5016977;28;20748;-58
2023/08/02 00:51:36;;;;;;;9.30;2.70;;;12.80;99.90;;;;;;5021424;28;20262;-58
2023/08/02 00:54:02;;;;;;;4.23;2.50;;;12.70;99.90;;;;;;5019807;28;20458;-58
2023/08/02 00:56:31;;;;;;;6.60;2.80;;;12.60;99.90;;;;;;5019211;28;20260;-58
2023/08/02 00:58:57;;;;;;;12.50;3.00;;;12.60;99.90;;;;;;5017874;28;20843;-58
2023/08/02 01:01:24;;;;;;;5.77;2.93;;;12.60;99.90;;;;;;5024002;28;20450;-59
2023/08/02 01:03:51;;;;;;;4.73;2.70;;;12.50;99.90;;;;;;5020719;28;20203;-58
2023/08/02 01:06:44;;;;;;;5.33;2.53;;;12.50;99.90;;;;;;5020001;28;20478;-58
2023/08/02 01:09:33;;;;;;;5.20;2.17;;;12.40;99.90;;;;;;5014549;28;20442;-58
2023/08/02 01:12:07;;;;;;;3.70;2.50;;;12.40;99.90;;;;;;5020776;28;20450;-58
2023/08/02 01:14:34;;;;;;;3.50;2.80;;;12.40;99.90;;;;;;5024040;28;20588;-58
2023/08/02 01:17:02;;;;;;;6.63;2.40;;;12.40;99.90;;;;;;5017678;28;20422;-58
2023/08/02 01:19:27;;;;;;;14.60;2.50;;;12.30;99.90;;;;;;5020312;28;20423;-59
2023/08/02 01:21:53;;;;;;;5.47;2.23;;;12.30;99.90;;;;;;5017489;28;20477;-58
2023/08/02 01:24:20;;;;;;;4.70;2.60;;;12.20;99.90;;;;;;5016598;28;20180;-59
2023/08/02 01:26:50;;;;;;;13.90;2.80;;;12.20;99.90;;;;;;5024092;28;20180;-60
2023/08/02 01:29:20;;;;;;;4.27;2.50;;;12.20;99.90;;;;;;5019745;28;20488;-59
2023/08/02 01:31:48;;;;;;;6.53;2.97;;;12.20;99.90;;;;;;5019111;28;20454;-58
2023/08/02 01:34:14;;;;;;;7.37;2.90;;;12.20;99.90;;;;;;5011677;28;20475;-60
2023/08/02 01:36:40;;;;;;;5.53;2.50;;;12.20;99.90;;;;;;5013857;28;20456;-58
2023/08/02 01:39:07;;;;;;;4.53;2.40;;;12.20;99.90;;;;;;5021547;28;21081;-57
2023/08/02 01:41:32;;;;;;;5.10;2.10;;;12.20;99.90;;;;;;5015366;28;21061;-59
2023/08/02 01:43:58;;;;;;;7.00;3.10;;;12.20;99.90;;;;;;5010106;28;20526;-59
2023/08/02 01:46:23;;;;;;;4.53;2.30;;;12.10;99.90;;;;;;5014398;28;20297;-59
2023/08/02 01:48:49;;;;;;;7.37;2.27;;;12.10;99.90;;;;;;5014149;28;20183;-59
2023/08/02 01:51:15;;;;;;;4.20;2.67;;;12.10;99.90;;;;;;5014472;28;20222;-58
2023/08/02 01:53:40;;;;;;;10.30;2.63;;;12.20;99.90;;;;;;5020962;28;20207;-60
2023/08/02 01:56:06;;;;;;;5.00;2.63;;;12.10;99.90;;;;;;5014237;28;21201;-57
2023/08/02 01:58:32;;;;;;;5.77;2.90;;;12.10;99.90;;;;;;5013963;28;20182;-57
2023/08/02 02:00:57;;;;;;;3.37;2.70;;;12.00;99.90;;;;;;5016339;28;20266;-58
2023/08/02 02:03:23;;;;;;;14.40;2.73;;;12.00;99.90;;;;;;5009805;28;20187;-58
2023/08/02 02:05:53;;;;;;;3.13;2.40;;;12.00;99.90;;;;;;5011528;28;20212;-58
2023/08/02 02:08:19;;;;;;;6.13;3.23;;;12.00;99.90;;;;;;5015268;28;20179;-58
2023/08/02 02:10:53;;;;;;;10.27;2.97;;;12.00;99.90;;;;;;5014052;28;20517;-59
2023/08/02 02:13:20;;;;;;;5.60;3.20;;;12.00;99.90;;;;;;5018697;28;20448;-57
2023/08/02 02:15:45;;;;;;;4.33;3.00;;;12.00;99.90;;;;;;5015399;28;20446;-57
2023/08/02 02:18:11;;;;;;;6.27;3.20;;;12.00;99.90;;;;;;5015728;28;20883;-57
2023/08/02 02:20:36;;;;;;;4.00;2.63;;;12.00;99.90;;;;;;5012215;28;20188;-58
2023/08/02 02:23:02;;;;;;;3.00;2.63;;;12.10;99.90;;;;;;5012755;28;20219;-57
2023/08/02 02:25:28;;;;;;;3.43;2.80;;;12.10;99.90;;;;;;5020527;28;20195;-59
2023/08/02 02:27:53;;;;;;;5.80;2.60;;;12.20;99.90;;;;;;5025533;28;20321;-57
2023/08/02 02:30:19;;;;;;;8.97;2.60;;;12.20;99.90;;;;;;5022233;28;20191;-57
2023/08/02 02:32:44;;;;;;;3.60;2.70;;;12.30;99.90;;;;;;5021767;28;20207;-60
2023/08/02 02:35:14;;;;;;;4.13;2.90;;;12.30;99.90;;;;;;5013230;28;20439;-61
2023/08/02 02:37:41;;;;;;;4.00;2.53;;;12.30;99.90;;;;;;5022837;28;20180;-59
2023/08/02 02:40:07;;;;;;;5.43;2.70;;;12.30;99.90;;;;;;5017595;28;20927;-58
2023/08/02 02:42:33;;;;;;;4.77;2.70;;;12.40;99.90;;;;;;5026014;28;20989;-58
2023/08/02 02:44:59;;;;;;;3.60;2.80;;;12.40;99.90;;;;;;5028066;28;20414;-58
2023/08/02 02:47:24;;;;;;;10.00;2.80;;;12.40;99.90;;;;;;5023575;28;20187;-59
2023/08/02 02:49:50;;;;;;;6.60;2.90;;;12.40;99.90;;;;;;5015547;28;20194;-59
2023/08/02 02:52:15;;;;;;;3.50;2.40;;;12.40;99.90;;;;;;5020496;28;20211;-59
2023/08/02 02:54:41;;;;;;;3.03;1.97;;;12.40;99.90;;;;;;5014343;28;20200;-58
2023/08/02 02:57:07;;;;;;;4.13;2.53;;;12.40;99.90;;;;;;5017740;28;20661;-57
2023/08/02 02:59:32;;;;;;;4.17;2.60;;;12.40;99.90;;;;;;5013893;28;20187;-59
2023/08/02 03:01:59;;;;;;;5.07;2.80;;;12.50;99.90;;;;;;5016890;28;20274;-60
2023/08/02 03:04:25;;;;;;;6.90;2.50;;;12.50;99.90;;;;;;5016184;28;20533;-60
2023/08/02 03:06:51;;;;;;;3.80;2.47;;;12.50;99.90;;;;;;5017086;28;20442;-58
2023/08/02 03:09:17;;;;;;;2.90;2.30;;;12.50;99.90;;;;;;5010070;28;20423;-60
2023/08/02 03:11:43;;;;;;;8.70;2.77;;;12.50;99.90;;;;;;5013981;28;20202;-59
2023/08/02 03:14:08;;;;;;;4.73;2.77;;;12.50;99.90;;;;;;5025282;28;20226;-59
2023/08/02 03:16:34;;;;;;;5.43;2.90;;;12.50;99.90;;;;;;5023463;28;20552;-57
2023/08/02 03:19:00;;;;;;;7.50;3.40;;;12.50;99.90;;;;;;5021202;28;20390;-58
2023/08/02 03:21:25;;;;;;;5.37;2.40;;;12.50;99.90;;;;;;5018023;28;20218;-58
2023/08/02 03:23:51;;;;;;;11.00;3.10;;;12.50;99.90;;;;;;5013402;28;20180;-58
2023/08/02 03:26:17;;;;;;;2.87;2.63;;;12.50;99.90;;;;;;5019542;28;20548;-58
2023/08/02 03:28:42;;;;;;;6.43;3.40;;;12.50;99.90;;;;;;5018806;28;20181;-59
2023/08/02 03:31:08;;;;;;;6.10;3.10;;;12.50;99.90;;;;;;5018027;28;20200;-57
2023/08/02 03:33:33;;;;;;;6.13;2.80;;;12.40;99.90;;;;;;5026340;28;20287;-57
2023/08/02 03:35:59;;;;;;;8.10;3.13;;;12.40;99.90;;;;;;5005674;28;20288;-58
2023/08/02 03:38:25;;;;;;;5.20;2.43;;;12.40;99.90;;;;;;5008258;28;20184;-60
2023/08/02 03:40:51;;;;;;;4.83;3.10;;;12.40;99.90;;;;;;5011560;28;20202;-57
2023/08/02 03:43:16;;;;;;;8.07;2.87;;;12.50;99.90;;;;;;5009190;28;20172;-58
2023/08/02 03:45:42;;;;;;;3.63;2.53;;;12.50;99.90;;;;;;5010538;28;20613;-58
2023/08/02 03:48:07;;;;;;;4.77;2.80;;;12.50;99.90;;;;;;5003882;28;20176;-61
2023/08/02 03:50:34;;;;;;;5.20;2.90;;;12.50;99.90;;;;;;5007826;28;20180;-60
2023/08/02 03:52:59;;;;;;;4.10;2.20;;;12.50;99.90;;;;;;5009343;28;20258;-60
2023/08/02 03:55:25;;;;;;;4.27;2.67;;;12.40;99.90;;;;;;5008026;28;20501;-62
2023/08/02 03:57:51;;;;;;;4.87;2.97;;;12.40;99.90;;;;;;5009884;28;20179;-55
2023/08/02 04:00:16;;;;;;;4.77;2.70;;;12.40;99.90;;;;;;5014516;28;20176;-59
2023/08/02 04:02:43;;;;;;;4.63;2.67;;;12.40;99.90;;;;;;5013894;28;20791;-59
2023/08/02 04:05:09;;;;;;;3.87;2.60;;;12.40;99.90;;;;;;4994761;28;22841;-63
2023/08/02 04:07:34;;;;;;;3.60;2.87;;;12.40;99.90;;;;;;5002465;28;20422;-60
2023/08/02 04:10:00;;;;;;;3.90;2.67;;;12.50;99.90;;;;;;5010089;28;20545;-59
2023/08/02 04:12:25;;;;;;;5.10;2.70;;;12.50;99.90;;;;;;5020373;28;20687;-59
2023/08/02 04:14:51;;;;;;;3.70;3.00;;;12.50;99.90;;;;;;5010449;28;20208;-57
2023/08/02 04:17:17;;;;;;;8.50;3.27;;;12.50;99.90;;;;;;5025818;28;20686;-58
2023/08/02 04:19:42;;;;;;;5.63;4.07;;;12.50;99.90;;;;;;5021116;28;20574;-58
2023/08/02 04:22:08;;;;;;;4.70;2.63;;;12.50;99.90;;;;;;5020215;28;20200;-59
2023/08/02 04:24:34;;;;;;;6.73;3.50;;;12.50;99.90;;;;;;5011614;28;20208;-58
2023/08/02 04:26:59;;;;;;;7.47;3.10;;;12.50;99.90;;;;;;5017604;28;20180;-58
2023/08/02 04:29:25;;;;;;;5.33;2.93;;;12.50;99.90;;;;;;5021697;28;20176;-60
2023/08/02 04:31:50;;;;;;;9.13;3.00;;;12.50;99.90;;;;;;5027619;28;20200;-58
2023/08/02 04:34:16;;;;;;;6.03;3.87;;;12.50;99.90;;;;;;5017262;28;20202;-59
2023/08/02 04:36:42;;;;;;;4.80;3.93;;;12.50;99.90;;;;;;5018091;28;20202;-56
2023/08/02 04:39:07;;;;;;;6.07;4.10;;;12.50;99.90;;;;;;5016630;28;20203;-57
2023/08/02 04:41:34;;;;;;;8.53;3.80;;;12.60;99.90;;;;;;5022460;28;20200;-57
2023/08/02 04:43:59;;;;;;;12.73;3.60;;;12.60;99.90;;;;;;5020985;28;20325;-55
2023/08/02 04:46:29;;;;;;;6.53;3.33;;;12.60;99.90;;;;;;5019233;28;20521;-56
2023/08/02 04:48:55;;;;;;;15.37;3.67;;;12.60;99.90;;;;;;5022360;28;20542;-56
2023/08/02 04:51:21;;;;;;;7.20;3.40;;;12.60;99.90;;;;;;5021994;28;20520;-57
2023/08/02 04:53:48;;;;;;;5.57;3.53;;;12.60;99.90;;;;;;5027229;28;20458;-56
2023/08/02 04:56:14;;;;;;;8.83;3.57;;;12.60;99.90;;;;;;5029025;28;20456;-56
2023/08/02 04:58:40;;;;;;;6.37;3.23;;;12.60;99.90;;;;;;5028689;28;20478;-56
2023/08/02 05:01:06;;;;;;;6.07;3.40;;;12.60;99.90;;;;;;5025418;28;20484;-54
2023/08/02 05:03:35;;;;;;;4.80;3.20;;;12.70;99.90;;;;;;5024528;28;20433;-55
2023/08/02 05:06:02;;;;;;;8.20;3.50;;;12.70;99.90;;;;;;5025091;28;21005;-56
2023/08/02 05:08:30;;;;;;;2.80;2.60;;;12.80;99.90;;;;;;5025610;28;20458;-55
2023/08/02 05:10:56;;;;;;;5.00;3.67;;;12.80;99.90;;;;;;5020923;28;20474;-55
2023/08/02 05:13:23;;;;;;;9.27;3.10;;;12.80;99.90;;;;;;5027179;28;20500;-54
2023/08/02 05:15:49;;;;;;;4.40;3.30;;;12.80;99.90;;;;;;5026231;28;20326;-55
2023/08/02 05:18:15;;;;;;;4.17;3.10;;;12.80;99.90;;;;;;5028823;28;21168;-56
2023/08/02 05:20:40;;;;;;;6.70;3.30;;;12.80;99.90;;;;;;5025826;28;20462;-57
2023/08/02 05:23:06;;;;;;;5.80;3.20;;;12.70;99.90;;;;;;5026634;28;20657;-55
2023/08/02 05:25:33;;;;;;;9.53;3.30;;;12.80;99.90;;;;;;5025209;28;20188;-56
2023/08/02 05:27:59;;;;;;;6.73;3.70;;;12.80;99.90;;;;;;5026680;28;20180;-56
2023/08/02 05:30:26;;;;;;;4.83;3.67;;;12.80;99.90;;;;;;5029839;28;20955;-56
2023/08/02 05:32:52;;;;;;;5.27;3.70;;;12.80;99.90;;;;;;5023607;28;20691;-58
2023/08/02 05:35:17;;;;;;;8.43;3.90;;;12.80;99.90;;;;;;5023005;28;20466;-56
2023/08/02 05:37:43;;;;;;;5.90;3.47;;;12.80;99.90;;;;;;5023417;28;20807;-56
2023/08/02 05:40:09;;;;;;;4.73;3.77;;;12.80;99.90;;;;;;5019581;28;20190;-55
2023/08/02 05:42:34;;;;;;;8.33;3.57;;;12.80;99.90;;;;;;5024546;28;20208;-57
2023/08/02 05:45:00;;;;;;;3.73;3.30;;;12.90;99.90;;;;;;5029552;28;20983;-56
2023/08/02 05:47:26;;;;;;;6.50;4.10;;;12.90;99.90;;;;;;5024331;28;20180;-56
2023/08/02 05:49:52;;;;;;;6.30;3.60;;;12.90;99.90;;;;;;5024532;28;20584;-57
2023/08/02 05:52:18;;;;;;;5.30;3.50;;;13.00;99.90;;;;;;5024150;28;21022;-55
2023/08/02 05:54:44;;;;;;;5.50;3.93;;;13.10;99.90;;;;;;5025942;28;20223;-56
2023/08/02 05:57:10;;;;;;;7.90;3.80;;;13.10;99.90;;;;;;5021711;28;20188;-57
2023/08/02 05:59:37;;;;;;;9.33;3.90;;;13.20;99.90;;;;;;5025983;28;20435;-56
2023/08/02 06:02:04;;;;;;;7.03;4.00;;;13.20;99.90;;;;;;5030357;28;20261;-55
2023/08/02 06:04:29;;;;;;;4.30;3.00;;;13.30;99.90;;;;;;5028516;28;20433;-56
2023/08/02 06:06:55;;;;;;;7.90;3.47;;;13.30;99.90;;;;;;5028405;28;20426;-56
2023/08/02 06:09:21;;;;;;;7.20;3.90;;;13.30;99.90;;;;;;5023762;28;20692;-56
2023/08/02 06:11:46;;;;;;;8.97;4.53;;;13.30;99.90;;;;;;5027478;28;20558;-56
2023/08/02 06:14:13;;;;;;;5.57;3.87;;;13.30;99.90;;;;;;5024384;28;20601;-57
2023/08/02 06:16:38;;;;;;;8.27;4.27;;;13.30;99.90;;;;;;5028629;28;20297;-57
2023/08/02 06:19:04;;;;;;;12.63;4.30;;;13.40;99.90;;;;;;5025518;28;20813;-56
2023/08/02 06:21:29;;;;;;;5.07;4.50;;;13.40;99.90;;;;;;5016804;28;20192;-58
2023/08/02 06:23:55;;;;;;;6.87;4.63;;;13.40;99.90;;;;;;5028189;28;20184;-55
2023/08/02 06:26:21;;;;;;;6.50;4.40;;;13.40;99.90;;;;;;5029318;28;20188;-56
2023/08/02 06:28:48;;;;;;;6.00;4.67;;;13.40;99.90;;;;;;5019802;28;20406;-55
2023/08/02 06:31:13;;;;;;;7.87;4.67;;;13.40;99.90;;;;;;5022041;28;20463;-56
2023/08/02 06:33:39;;;;;;;13.67;5.93;;;13.40;99.90;;;;;;5025948;28;20426;-56
2023/08/02 06:36:05;;;;;;;6.97;5.40;;;13.40;99.90;;;;;;5025130;28;20172;-57
2023/08/02 06:38:32;;;;;;;8.60;5.73;;;13.50;99.90;;;;;;5026336;28;20184;-57
2023/08/02 06:40:58;;;;;;;8.87;5.70;;;13.50;99.90;;;;;;5024830;28;20203;-56
2023/08/02 06:43:23;;;;;;;13.20;7.37;;;13.60;99.90;;;;;;5028730;28;20433;-56
2023/08/02 06:45:49;;;;;;;12.70;7.80;;;13.60;99.90;;;;;;5017511;28;20176;-56
2023/08/02 06:48:19;;;;;;;18.60;9.20;;;13.70;99.90;;;;;;5022675;28;20540;-57
2023/08/02 06:50:45;;;;;;;15.10;9.27;;;13.70;99.90;;;;;;5027870;28;20251;-57
2023/08/02 06:53:11;;;;;;;12.10;8.57;;;13.80;99.90;;;;;;5029238;28;20578;-57
2023/08/02 06:55:36;;;;;;;12.83;8.37;;;13.90;99.90;;;;;;5028518;28;20676;-55
2023/08/02 06:58:02;;;;;;;11.10;8.30;;;13.90;99.90;;;;;;5023997;28;20642;-55
2023/08/02 07:00:32;;;;;;;13.93;8.97;;;14.00;99.90;;;;;;5021758;28;20184;-57
2023/08/02 07:03:02;;;;;;;10.87;8.43;;;14.00;99.90;;;;;;5020838;28;20474;-56
2023/08/02 07:05:29;;;;;;;13.40;8.47;;;14.00;99.90;;;;;;5023873;28;20457;-56
2023/08/02 07:07:59;;;;;;;14.63;8.60;;;14.10;99.90;;;;;;5025184;28;20799;-57
2023/08/02 07:10:25;;;;;;;13.03;9.10;;;14.10;99.90;;;;;;5022719;28;20585;-57
2023/08/02 07:12:51;;;;;;;11.87;8.50;;;14.10;99.90;;;;;;5020333;28;20816;-58
2023/08/02 07:15:18;;;;;;;13.03;8.70;;;14.20;99.90;;;;;;5029566;28;20461;-57
2023/08/02 07:17:44;;;;;;;13.10;9.20;;;14.10;99.90;;;;;;5026709;28;20207;-55
2023/08/02 07:20:11;;;;;;;12.53;9.00;;;14.20;99.90;;;;;;5025035;28;20506;-57
2023/08/02 07:22:37;;;;;;;18.03;9.00;;;14.20;99.90;;;;;;5020851;28;20447;-56
2023/08/02 07:25:03;;;;;;;12.03;8.20;;;14.20;99.90;;;;;;5026744;28;20536;-55
2023/08/02 07:27:29;;;;;;;17.90;9.47;;;14.20;99.90;;;;;;5019618;28;20435;-56
2023/08/02 07:29:56;;;;;;;13.47;9.17;;;14.20;99.90;;;;;;5026608;28;20465;-56
2023/08/02 07:32:22;;;;;;;14.67;9.40;;;14.20;99.90;;;;;;5026672;28;20195;-57
2023/08/02 07:34:48;;;;;;;13.90;8.90;;;14.20;99.90;;;;;;5016095;28;20620;-56
2023/08/02 07:37:14;;;;;;;14.83;8.67;;;14.20;99.90;;;;;;5020301;28;20831;-57
2023/08/02 07:39:40;;;;;;;13.40;8.43;;;14.20;99.90;;;;;;5026252;28;20187;-57
2023/08/02 07:42:07;;;;;;;14.30;9.87;;;14.20;99.90;;;;;;5021272;28;20251;-56
2023/08/02 07:44:33;;;;;;;13.40;9.30;;;14.20;99.90;;;;;;5027988;28;20434;-57
2023/08/02 07:46:58;;;;;;;12.90;9.70;;;14.30;99.90;;;;;;5019144;28;20471;-56
2023/08/02 07:49:24;;;;;;;15.40;9.40;;;14.30;99.90;;;;;;5016433;28;20184;-58
2023/08/02 07:51:49;;;;;;;14.43;9.43;;;14.30;99.90;;;;;;5026709;28;20199;-55
2023/08/02 07:54:15;;;;;;;14.40;9.50;;;14.30;99.90;;;;;;5017840;28;20221;-55
2023/08/02 07:56:40;;;;;;;13.37;10.10;;;14.30;99.90;;;;;;5018960;28;20226;-57
2023/08/02 07:59:06;;;;;;;13.97;9.43;;;14.30;99.90;;;;;;5022254;28;20231;-57
2023/08/02 08:01:32;;;;;;;12.50;9.13;;;14.30;99.90;;;;;;5030288;28;20655;-57
2023/08/02 08:03:57;;;;;;;12.93;9.30;;;14.30;99.90;;;;;;5031054;28;20175;-58
2023/08/02 08:06:26;;;;;;;12.87;9.67;;;14.40;99.90;;;;;;5028952;28;20184;-57
2023/08/02 08:08:51;;;;;;;12.17;8.50;;;14.40;99.90;;;;;;5023122;28;20319;-58
2023/08/02 08:11:17;;;;;;;13.37;9.10;;;14.40;99.90;;;;;;5026383;28;20538;-57
2023/08/02 08:13:43;;;;;;;13.87;9.30;;;14.40;99.90;;;;;;5029622;28;20168;-57
2023/08/02 08:16:08;;;;;;;13.80;8.97;;;14.50;99.90;;;;;;5024986;28;20176;-58
2023/08/02 08:18:34;;;;;;;18.63;10.33;;;14.50;99.90;;;;;;5026310;28;20202;-57
2023/08/02 08:21:01;;;;;;;15.43;9.70;;;14.60;99.90;;;;;;5027139;28;20192;-58
2023/08/02 08:23:27;;;;;;;14.93;10.00;;;14.70;99.90;;;;;;5024168;28;20167;-58
2023/08/02 08:25:53;;;;;;;15.93;9.93;;;14.70;99.90;;;;;;5022234;28;20431;-56
2023/08/02 08:28:19;;;;;;;12.70;9.30;;;14.90;99.90;;;;;;5028803;28;20417;-58
2023/08/02 08:30:45;;;;;;;15.30;9.50;;;14.90;99.90;;;;;;5025685;28;20422;-56
2023/08/02 08:33:11;;;;;;;20.13;11.13;;;15.10;99.90;;;;;;5026696;28;20280;-57
2023/08/02 08:35:36;;;;;;;18.93;10.10;;;15.10;99.90;;;;;;5026211;28;20324;-55
2023/08/02 08:38:03;;;;;;;16.53;9.70;;;15.20;99.90;;;;;;5016011;28;20176;-57
2023/08/02 08:40:29;;;;;;;14.47;10.67;;;15.30;99.90;;;;;;5014420;28;20184;-57
2023/08/02 08:42:56;;;;;;;13.17;9.27;;;15.40;99.90;;;;;;5013809;28;20465;-55
2023/08/02 08:45:25;;;;;;;13.00;9.60;;;15.40;99.90;;;;;;5017962;28;20259;-56
2023/08/02 08:47:52;;;;;;;15.57;9.90;;;15.50;99.90;;;;;;5018511;28;20525;-55
2023/08/02 08:50:20;;;;;;;18.83;10.20;;;15.60;99.90;;;;;;5019296;28;20442;-57
2023/08/02 08:52:47;;;;;;;12.93;9.40;;;15.60;99.90;;;;;;5020265;28;20497;-56
2023/08/02 08:55:16;;;;;;;15.83;9.77;;;15.60;99.90;;;;;;5021748;28;20489;-55
2023/08/02 08:57:45;;;;;;;15.43;9.57;;;15.60;99.90;;;;;;5025462;28;20478;-56
2023/08/02 09:00:11;;;;;;;15.57;9.40;;;15.60;99.90;;;;;;5021860;28;20537;-56
2023/08/02 09:02:41;;;;;;;13.67;9.47;;;15.60;99.90;;;;;;5023360;28;20656;-56
2023/08/02 09:05:07;;;;;;;17.83;9.33;;;15.60;99.90;;;;;;5022364;28;20451;-55
2023/08/02 09:07:33;;;;;;;18.43;9.80;;;15.60;99.90;;;;;;5018861;28;20423;-56
2023/08/02 09:09:59;;;;;;;15.07;9.90;;;15.70;99.90;;;;;;5019501;28;20504;-55
2023/08/02 09:12:25;;;;;;;15.40;10.37;;;15.80;99.90;;;;;;5017374;28;20286;-55
2023/08/02 09:15:05;;;;;;;17.67;10.53;;;15.80;99.90;;;;;;5025653;28;21007;-55
2023/08/02 09:17:52;;;;;;;15.63;10.17;;;15.90;99.90;;;;;;5023253;28;20484;-56
2023/08/02 09:20:20;;;;;;;14.63;10.20;;;15.90;99.90;;;;;;5020789;28;20427;-55
2023/08/02 09:22:46;;;;;;;21.10;9.97;;;15.90;99.90;;;;;;5017325;28;20451;-54
2023/08/02 09:25:27;;;;;;;18.40;10.87;;;16.00;99.90;;;;;;5018514;28;20458;-55
2023/08/02 09:27:55;;;;;;;20.33;9.50;;;16.10;99.90;;;;;;5021456;28;20256;-55
2023/08/02 09:30:25;;;;;;;12.83;9.90;;;16.20;99.90;;;;;;5022698;28;20983;-55
2023/08/02 09:33:06;;;;;;;14.70;9.70;;;16.30;99.90;;;;;;5024361;28;20451;-55
2023/08/02 09:35:52;;;;;;;15.10;9.63;;;16.40;99.90;;;;;;5024610;28;20489;-55
2023/08/02 09:38:18;;;;;;;15.20;10.37;;;16.50;99.90;;;;;;5015629;28;20518;-55
2023/08/02 09:40:47;;;;;;;15.97;10.63;;;16.60;99.90;;;;;;5022981;28;20545;-54
2023/08/02 09:43:15;;;;;;;15.23;9.20;;;16.80;99.90;;;;;;5017150;28;20945;-55
2023/08/02 09:45:41;;;;;;;14.03;9.53;;;16.90;99.90;;;;;;5019996;28;20434;-55
2023/08/02 09:48:07;;;;;;;16.23;9.13;;;17.20;99.90;;;;;;5023667;28;20541;-54
2023/08/02 09:50:33;;;;;;;15.93;9.30;;;17.30;99.90;;;;;;5014464;28;20517;-54
2023/08/02 09:53:15;;;;;;;14.90;10.27;;;17.50;99.90;;;;;;5019090;28;20226;-55
2023/08/02 09:55:44;;;;;;;14.50;8.90;;;17.60;99.90;;;;;;5015944;28;20227;-54
2023/08/02 09:58:12;;;;;;;13.93;9.40;;;17.80;99.90;;;;;;5017791;28;20904;-55
2023/08/02 10:00:39;;;;;;;14.13;9.30;;;17.90;99.90;;;;;;5016437;28;20435;-53
2023/08/02 10:03:06;;;;;;;12.93;8.93;;;18.10;99.90;;;;;;5022145;28;20403;-54
2023/08/02 10:05:35;;;;;;;18.17;10.80;;;18.20;99.90;;;;;;5017274;28;20439;-55
2023/08/02 10:08:01;;;;;;;12.50;8.87;;;18.40;99.90;;;;;;5022242;28;20434;-55
2023/08/02 10:10:30;;;;;;;11.77;7.87;;;18.70;99.90;;;;;;5015023;28;20442;-56
2023/08/02 10:13:05;;;;;;;15.27;9.70;;;18.90;99.90;;;;;;5014500;28;20458;-55
2023/08/02 10:15:31;;;;;;;10.33;7.43;;;19.10;99.90;;;;;;5015858;28;20465;-58
2023/08/02 10:17:58;;;;;;;11.40;7.97;;;19.30;99.90;;;;;;5021314;28;20429;-56
2023/08/02 10:20:24;;;;;;;10.60;7.10;;;19.50;99.90;;;;;;5023531;28;20178;-57
2023/08/02 10:22:51;;;;;;;9.60;6.47;;;19.70;99.90;;;;;;5020354;28;20455;-56
2023/08/02 10:25:19;;;;;;;11.20;6.60;;;20.00;99.90;;;;;;5027362;28;20434;-57
2023/08/02 10:27:46;;;;;;;7.53;5.67;;;20.30;99.90;;;;;;5023681;28;20962;-57
2023/08/02 10:30:13;;;;;;;9.50;5.67;;;20.40;99.90;;;;;;5020937;28;20466;-57
2023/08/02 10:32:38;;;;;;;7.07;5.40;;;20.40;99.90;;;;;;5019309;28;20458;-57
2023/08/02 10:35:05;;;;;;;8.17;5.43;;;20.20;99.90;;;;;;5020998;28;20461;-57
2023/08/02 10:38:10;;;;;;;9.23;5.37;;;20.10;99.90;;;;;;5015495;28;20168;-56
2023/08/02 10:41:03;;;;;;;9.30;5.30;;;20.00;99.90;;;;;;4994462;28;20526;-57
2023/08/02 10:43:28;;;;;;;9.50;5.77;;;20.00;99.90;;;;;;4995077;28;20428;-56
2023/08/02 10:46:16;;;;;;;8.50;5.33;;;20.00;99.90;;;;;;5006246;28;20457;-56
2023/08/02 10:48:42;;;;;;;9.70;4.90;;;20.00;99.90;;;;;;5017816;28;20172;-56
2023/08/02 10:51:26;;;;;;;17.73;5.77;;;20.10;99.90;;;;;;5021187;28;20828;-56
2023/08/02 10:54:18;;;;;;;10.70;6.60;;;20.30;99.90;;;;;;5024986;28;20604;-56
2023/08/02 10:56:53;;;;;;;7.40;5.40;;;20.40;99.90;;;;;;5012767;28;20433;-57
2023/08/02 10:59:24;;;;;;;7.80;5.50;;;20.60;99.90;;;;;;5020974;28;20430;-57
2023/08/02 11:02:07;;;;;;;7.47;4.80;;;20.60;99.90;;;;;;5017165;28;20457;-56
2023/08/02 11:04:35;;;;;;;8.30;4.40;;;20.70;99.90;;;;;;5006957;28;20445;-56
2023/08/02 11:07:18;;;;;;;6.00;4.07;;;20.70;99.90;;;;;;5013800;28;20710;-56
2023/08/02 11:09:48;;;;;;;9.83;4.93;;;20.70;99.90;;;;;;5018424;28;20439;-56
2023/08/02 11:12:18;;;;;;;7.57;4.60;;;20.70;99.90;;;;;;5019550;28;20520;-58
2023/08/02 11:14:46;;;;;;;5.93;3.87;;;20.80;99.90;;;;;;5022385;28;20550;-58
2023/08/02 11:17:19;;;;;;;5.30;3.83;;;20.80;99.90;;;;;;5013178;28;20441;-57
2023/08/02 11:19:49;;;;;;;6.87;4.83;;;20.90;99.90;;;;;;5009754;28;20525;-58
2023/08/02 11:22:15;;;;;;;4.50;3.80;;;21.00;99.90;;;;;;5013970;28;20478;-58
2023/08/02 11:24:50;;;;;;;7.80;4.90;;;21.10;99.90;;;;;;5018323;28;20448;-58
2023/08/02 11:27:21;;;;;;;6.67;4.47;;;21.20;99.90;;;;;;5012062;28;20443;-57
2023/08/02 11:29:57;;;;;;;6.50;3.97;;;21.40;99.90;;;;;;5010646;28;20876;-59
2023/08/02 11:32:23;;;;;;;6.07;4.10;;;21.70;99.90;;;;;;5024151;28;20441;-57
2023/08/02 11:34:49;;;;;;;5.47;4.07;;;21.90;99.90;;;;;;5021419;28;20525;-58
2023/08/02 11:37:15;;;;;;;8.60;4.30;;;22.40;99.90;;;;;;5018048;28;20275;-58
2023/08/02 11:39:51;;;;;;;4.77;3.80;;;22.70;99.90;;;;;;5023856;28;20197;-58
2023/08/02 11:42:17;;;;;;;7.13;4.43;;;23.10;98.80;;;;;;5023851;28;20466;-58
2023/08/02 11:44:44;;;;;;;6.10;4.10;;;23.20;96.60;;;;;;5008583;28;20442;-58
2023/08/02 11:47:09;;;;;;;9.40;4.10;;;23.40;97.00;;;;;;5012249;28;20284;-59
2023/08/02 11:49:48;;;;;;;7.40;4.23;;;23.40;94.70;;;;;;5017968;28;20525;-58
2023/08/02 11:52:22;;;;;;;7.17;4.33;;;23.40;94.40;;;;;;5011655;28;20314;-59
2023/08/02 11:54:48;;;;;;;6.73;3.93;;;23.30;96.00;;;;;;5013555;28;20593;-58
2023/08/02 11:57:14;;;;;;;9.27;4.10;;;23.40;95.50;;;;;;5011420;28;21002;-59
2023/08/02 11:59:42;;;;;;;8.30;4.60;;;23.30;95.90;;;;;;5013035;28;20526;-59
2023/08/02 12:02:22;;;;;;;6.07;4.30;;;23.20;96.10;;;;;;5016030;28;20334;-59
2023/08/02 12:04:48;;;;;;;6.70;4.63;;;23.20;96.70;;;;;;5009885;28;20588;-56
2023/08/02 12:07:23;;;;;;;4.93;3.80;;;23.20;94.20;;;;;;5010990;28;20974;-56
2023/08/02 12:09:49;;;;;;;6.40;4.33;;;23.20;95.50;;;;;;5013258;28;20422;-59
2023/08/02 12:12:15;;;;;;;5.80;3.53;;;23.40;96.40;;;;;;5009973;28;20470;-57
2023/08/02 12:14:40;;;;;;;4.30;3.47;;;23.40;95.00;;;;;;5011322;28;20199;-59
2023/08/02 12:17:18;;;;;;;8.33;4.83;;;23.50;98.10;;;;;;5012111;28;20188;-58
2023/08/02 12:19:44;;;;;;;5.10;4.10;;;23.70;95.80;;;;;;5011013;28;20242;-58
2023/08/02 12:22:09;;;;;;;6.53;4.43;;;23.80;93.10;;;;;;5015447;28;21013;-59
2023/08/02 12:24:35;;;;;;;5.33;4.20;;;23.90;93.20;;;;;;5017396;28;20280;-59
2023/08/02 12:27:18;;;;;;;5.20;3.70;;;24.00;91.50;;;;;;5016510;28;20210;-59
2023/08/02 12:29:46;;;;;;;5.23;3.97;;;24.00;91.80;;;;;;5014304;28;20176;-60
2023/08/02 12:32:26;;;;;;;5.10;3.53;;;24.00;92.30;;;;;;5019118;28;21070;-59
2023/08/02 12:34:53;;;;;;;5.10;3.60;;;23.90;90.90;;;;;;5017124;28;20580;-56
2023/08/02 12:37:18;;;;;;;4.80;3.90;;;23.80;91.50;;;;;;5017069;28;20501;-58
2023/08/02 12:39:44;;;;;;;5.00;3.90;;;23.80;90.70;;;;;;5011589;28;20455;-50
2023/08/02 12:42:10;;;;;;;6.13;4.10;;;23.70;91.50;;;;;;5018221;28;20226;-58
2023/08/02 12:44:35;;;;;;;5.13;4.10;;;23.60;93.10;;;;;;5022611;28;20180;-59